Hlavní strana
METAR-TAF:

METAR-TAF

Letiště :

Andøya, Norsko

zeměpisná šířka: 69-18N, zeměpisná délka: 016-09E, výška: 1 m

Aktuální stav počasí

Zpráva byla vytvořena před 47 minutami, v 17:50 UTC
Jižní vítr 14 kt
Teplota 2°C
Vlhkost vzduchu 87%
Tlak 1009 hPa
Viditelnost 10 km a více

METAR: ENAN 061750Z AUTO 18014KT 9999 FEW038/// BKN053/// 02/M00 Q1009 REUP

Čas: 20:37 (18:37 UTC)

Předpověď počasí

Zpráva byla vytvořena před 1 hodinou a 37 minutami, v 17:00 UTC
Předpověď platná od 06 v 18 UTC do 07 v 18 UTC
Jihojihovýchodní vítr 18 kt
Viditelnost 10 km a více
Polojasno ve výšce 2000 ft
Oblačno až skoro zataženo ve výšce 4000 ft
Změna
od 07 v 01 UTC do 07 v 03 UTC
Jihozápadní vítr 20 kt
Dočasný
od 07 v 02 UTC do 07 v 15 UTC
Západojihozápadní vítr 20 kt s nárazy do 32 kt
Oblačno až skoro zataženo ve výšce 1200 ft, Vertikální cumulus.
dešťové přeháňky

TAF: ENAN 061700Z 0618/0718 15018KT 9999 SCT020 BKN040 BECMG 0701/0703 23020KT TEMPO 0702/0715 24020G32KT SHRA BKN012TCU

Stav a předpovědi počasí z více než 4 000 letišť (zprávy METAR a TAF).

Červené a žluté tečky na mapě představují dostupné meteorologické stanice.

Když kurzor umístíte na tečku, zobrazí se název stanice.

Pak kliknutím zobrazíte stav a předpověď počasí.

Chcete-li změnit mapu, kliknutím na zelené tlačítko se znaménkem +mapu přiblížíte, kliknutím na zelené tlačítko se znaménkem – mapu oddálíte a kliknutím na zelené šipky přejdete na sousední mapy.


METAR-TAF: